Time;durP1;ratioP1;P1;durP2;ratioP2;P2;SDS_P1;SDS_P2;PMS_P1;PMS_P2;Temp;Humidity;BMP_temperature;BMP_pressure;BME280_temperature;BME280_humidity;BME280_pressure;Samples;Min_cycle;Max_cycle;Signal;HPM_P1;HPM_P2
2022/10/05 00:00:08;;;;;;;14.02;7.00;;;15.40;98.40;;;;;;5071591;28;20135;-56
2022/10/05 00:02:34;;;;;;;13.50;7.18;;;15.10;98.20;;;;;;5070564;28;20071;-53
2022/10/05 00:05:00;;;;;;;12.82;6.60;;;15.00;98.20;;;;;;5070408;28;20408;-56
2022/10/05 00:07:29;;;;;;;10.40;6.55;;;15.00;97.90;;;;;;5069754;28;20088;-56
2022/10/05 00:09:57;;;;;;;11.60;6.82;;;16.20;98.20;;;;;;5069475;28;20055;-56
2022/10/05 00:12:24;;;;;;;13.10;7.30;;;15.10;97.70;;;;;;5069810;28;20106;-56
2022/10/05 00:14:54;;;;;;;12.05;7.15;;;15.00;97.90;;;;;;5070200;28;20532;-56
2022/10/05 00:17:22;;;;;;;14.88;7.18;;;15.10;97.70;;;;;;5071013;28;20508;-56
2022/10/05 00:19:51;;;;;;;12.63;6.88;;;15.10;97.80;;;;;;5070243;28;20047;-56
2022/10/05 00:22:22;;;;;;;12.20;6.93;;;15.00;98.00;;;;;;5070683;28;20059;-56
2022/10/05 00:24:54;;;;;;;9.68;6.72;;;15.20;98.10;;;;;;5067885;28;20043;-55
2022/10/05 00:27:23;;;;;;;9.25;6.70;;;14.90;97.40;;;;;;5069415;28;20510;-56
2022/10/05 00:29:50;;;;;;;9.63;6.10;;;15.00;97.50;;;;;;5068787;28;20050;-56
2022/10/05 00:32:16;;;;;;;9.32;6.68;;;15.10;97.70;;;;;;5069101;28;20038;-56
2022/10/05 00:34:44;;;;;;;9.18;6.45;;;14.70;96.50;;;;;;5071341;28;20036;-57
2022/10/05 00:37:10;;;;;;;8.88;6.20;;;15.10;97.00;;;;;;5071154;28;20681;-56
2022/10/05 00:39:37;;;;;;;10.65;7.20;;;15.10;96.70;;;;;;5071188;28;20043;-55
2022/10/05 00:42:34;;;;;;;9.85;5.93;;;17.20;97.10;;;;;;5070534;28;20036;-56
2022/10/05 00:45:14;;;;;;;12.45;6.13;;;14.90;96.60;;;;;;5071851;28;20385;-56
2022/10/05 00:47:55;;;;;;;9.43;5.90;;;14.80;95.40;;;;;;5071213;28;20085;-56
2022/10/05 00:50:27;;;;;;;14.80;5.80;;;15.00;95.90;;;;;;5070343;28;20114;-56
2022/10/05 00:53:20;;;;;;;7.82;5.30;;;14.90;95.50;;;;;;5074039;28;20055;-56
2022/10/05 00:56:07;;;;;;;11.40;5.35;;;15.00;94.80;;;;;;5069272;28;20948;-55
2022/10/05 00:59:02;;;;;;;8.68;4.97;;;15.10;94.90;;;;;;5069104;28;20089;-56
2022/10/05 01:01:50;;;;;;;10.45;5.05;;;15.00;94.50;;;;;;4997375;28;20053;-55
2022/10/05 01:04:34;;;;;;;8.52;5.05;;;14.90;95.30;;;;;;5068604;28;20150;-56
2022/10/05 01:07:15;;;;;;;11.90;5.50;;;14.80;95.50;;;;;;5069867;28;20416;-56
2022/10/05 01:09:48;;;;;;;8.98;5.15;;;15.00;94.80;;;;;;5067295;28;20071;-55
2022/10/05 01:12:45;;;;;;;8.43;5.10;;;15.00;94.60;;;;;;5067809;28;20208;-55
2022/10/05 01:15:22;;;;;;;8.95;4.95;;;14.90;94.80;;;;;;5068824;28;20073;-56
2022/10/05 01:18:07;;;;;;;10.27;4.85;;;14.80;94.50;;;;;;5067653;28;20083;-56
2022/10/05 01:20:50;;;;;;;9.82;4.53;;;14.90;93.80;;;;;;5070439;28;20044;-56
2022/10/05 01:23:56;;;;;;;9.57;4.80;;;14.90;94.70;;;;;;5068258;28;20123;-56
2022/10/05 01:26:28;;;;;;;7.20;4.57;;;14.90;93.50;;;;;;5052974;28;20108;-56
2022/10/05 01:29:11;;;;;;;7.00;4.63;;;12.60;94.70;;;;;;5069241;28;20785;-56
2022/10/05 01:31:58;;;;;;;9.25;5.30;;;14.90;94.60;;;;;;5066573;28;20040;-55
2022/10/05 01:34:56;;;;;;;10.95;5.78;;;14.80;95.40;;;;;;5068929;28;20140;-55
2022/10/05 01:37:36;;;;;;;7.82;5.40;;;15.00;94.90;;;;;;5067929;28;20044;-56
2022/10/05 01:40:23;;;;;;;9.48;5.32;;;15.00;94.80;;;;;;5066550;28;20261;-56
2022/10/05 01:43:13;;;;;;;9.65;6.25;;;15.00;95.40;;;;;;5068610;28;20047;-56
2022/10/05 01:46:20;;;;;;;12.10;6.05;;;14.90;95.20;;;;;;5069984;28;20061;-56
2022/10/05 01:49:00;;;;;;;9.30;5.95;;;15.00;95.80;;;;;;5070048;28;20150;-56
2022/10/05 01:51:53;;;;;;;8.57;6.20;;;15.00;96.90;;;;;;5069953;28;20142;-55
2022/10/05 01:54:22;;;;;;;9.95;5.88;;;14.90;97.10;;;;;;5069826;28;20055;-54
2022/10/05 01:57:26;;;;;;;10.00;6.80;;;14.80;97.10;;;;;;5069699;28;20198;-56
2022/10/05 01:59:57;;;;;;;8.57;6.32;;;14.50;98.10;;;;;;5068195;28;24489;-56
2022/10/05 02:02:24;;;;;;;15.80;7.78;;;14.80;98.50;;;;;;5067362;28;20389;-56
2022/10/05 02:04:56;;;;;;;12.57;6.88;;;14.80;99.20;;;;;;5070170;28;20040;-56
2022/10/05 02:07:28;;;;;;;12.52;7.30;;;14.80;99.40;;;;;;5069799;28;20040;-55
2022/10/05 02:10:16;;;;;;;9.88;6.90;;;14.80;98.80;;;;;;5069743;28;20036;-55
2022/10/05 02:12:44;;;;;;;10.70;7.28;;;14.60;99.60;;;;;;5069540;28;20740;-56
2022/10/05 02:15:15;;;;;;;10.18;6.47;;;14.50;99.90;;;;;;5072172;28;20036;-56
2022/10/05 02:17:51;;;;;;;11.00;6.15;;;14.70;99.90;;;;;;5073327;28;20121;-55
2022/10/05 02:20:24;;;;;;;15.90;7.07;;;14.60;99.90;;;;;;5072221;28;20040;-55
2022/10/05 02:22:57;;;;;;;10.40;6.70;;;14.70;99.90;;;;;;5071285;28;20515;-55
2022/10/05 02:25:28;;;;;;;11.85;7.03;;;14.80;99.90;;;;;;5073066;28;20078;-55
2022/10/05 02:28:41;;;;;;;13.97;6.87;;;14.60;99.90;;;;;;5071756;28;20046;-55
2022/10/05 02:31:26;;;;;;;10.13;6.93;;;14.80;99.90;;;;;;5069371;28;20342;-53
2022/10/05 02:34:41;;;;;;;11.48;7.07;;;14.80;99.90;;;;;;5070259;28;20079;-55
2022/10/05 02:37:42;;;;;;;14.32;7.13;;;14.60;99.90;;;;;;5060515;28;20109;-56
2022/10/05 02:40:34;;;;;;;13.00;7.10;;;14.70;99.90;;;;;;5069942;28;20580;-56
2022/10/05 02:43:39;;;;;;;12.60;6.60;;;14.70;99.90;;;;;;5069759;28;20039;-55
2022/10/05 02:46:40;;;;;;;15.48;6.20;;;14.90;99.90;;;;;;5072059;28;20136;-55
2022/10/05 02:49:36;;;;;;;15.23;6.55;;;14.80;99.90;;;;;;5072522;28;20036;-56
2022/10/05 02:52:26;;;;;;;11.52;6.03;;;14.60;99.90;;;;;;5070595;28;20095;-55
2022/10/05 02:55:12;;;;;;;8.65;5.63;;;14.70;99.50;;;;;;5071105;28;20376;-55
2022/10/05 02:57:59;;;;;;;9.52;6.00;;;14.70;99.20;;;;;;5070182;28;20567;-55
2022/10/05 03:00:30;;;;;;;10.38;5.70;;;14.80;99.90;;;;;;5070055;28;20600;-55
2022/10/05 03:03:11;;;;;;;10.25;5.60;;;14.70;99.90;;;;;;5071466;28;20109;-54
2022/10/05 03:05:45;;;;;;;8.07;5.18;;;14.80;99.70;;;;;;5071678;28;20040;-55
2022/10/05 03:08:37;;;;;;;7.65;5.25;;;14.70;99.50;;;;;;5071657;28;20059;-55
2022/10/05 03:11:12;;;;;;;;;;;14.90;98.40;;;;;;5072490;28;20692;-56
2022/10/05 03:14:06;;;;;;;7.80;4.90;;;14.70;98.40;;;;;;5072044;28;20297;-55
2022/10/05 03:16:44;;;;;;;9.90;5.20;;;14.90;97.90;;;;;;5065116;28;20098;-55
2022/10/05 03:19:09;;;;;;;8.68;5.43;;;14.80;98.90;;;;;;5072146;28;20087;-54
2022/10/05 03:21:47;;;;;;;9.00;4.80;;;14.70;98.40;;;;;;5072106;28;20119;-55
2022/10/05 03:24:29;;;;;;;9.15;4.88;;;14.80;97.80;;;;;;5070050;28;20036;-54
2022/10/05 03:27:13;;;;;;;7.75;4.60;;;14.90;98.40;;;;;;5072052;28;20130;-56
2022/10/05 03:29:48;;;;;;;7.93;5.03;;;14.70;97.80;;;;;;5072701;28;20047;-56
2022/10/05 03:32:44;;;;;;;8.70;4.93;;;15.30;98.80;;;;;;5071625;28;20055;-55
2022/10/05 03:35:09;;;;;;;7.70;4.78;;;14.90;97.80;;;;;;5071326;28;20202;-54
2022/10/05 03:37:38;;;;;;;10.25;4.55;;;14.60;98.20;;;;;;5072841;28;20321;-56
2022/10/05 03:40:26;;;;;;;6.82;4.80;;;14.70;98.00;;;;;;5071264;28;21194;-56
2022/10/05 03:43:18;;;;;;;8.38;4.53;;;14.80;97.10;;;;;;5072185;28;20044;-56
2022/10/05 03:45:44;;;;;;;6.82;4.20;;;14.80;96.90;;;;;;5072289;28;20048;-54
2022/10/05 03:48:28;;;;;;;9.20;5.30;;;14.90;97.10;;;;;;5070831;28;20672;-55
2022/10/05 03:50:57;;;;;;;9.95;4.05;;;14.70;96.00;;;;;;5070480;28;20036;-55
2022/10/05 03:53:28;;;;;;;5.68;4.00;;;14.70;96.20;;;;;;5070480;28;20043;-54
2022/10/05 03:56:20;;;;;;;9.70;4.07;;;14.60;96.90;;;;;;5070958;28;20079;-54
2022/10/05 03:58:46;;;;;;;7.00;3.88;;;14.90;94.40;;;;;;5070778;28;20047;-54
2022/10/05 04:01:18;;;;;;;10.57;4.30;;;14.70;95.30;;;;;;5069541;28;20048;-55
2022/10/05 04:03:47;;;;;;;;;;;14.90;95.20;;;;;;5069596;28;20115;-55
2022/10/05 04:06:29;;;;;;;10.25;4.50;;;14.70;95.40;;;;;;5069884;28;20047;-55
2022/10/05 04:09:09;;;;;;;8.20;4.45;;;14.70;94.90;;;;;;5071095;28;20067;-54
2022/10/05 04:11:49;;;;;;;7.03;4.28;;;14.70;93.90;;;;;;5070891;28;20038;-53
2022/10/05 04:14:47;;;;;;;9.57;5.03;;;14.70;94.50;;;;;;5071862;28;20044;-55
2022/10/05 04:17:20;;;;;;;10.50;4.95;;;14.80;93.60;;;;;;5070792;28;20036;-53
2022/10/05 04:19:57;;;;;;;9.88;4.35;;;14.70;95.60;;;;;;5070028;28;20032;-53
2022/10/05 04:22:36;;;;;;;7.82;4.38;;;14.60;95.00;;;;;;5068086;28;20575;-55
2022/10/05 04:25:25;;;;;;;10.45;4.55;;;14.70;95.80;;;;;;5068382;28;20102;-55
2022/10/05 04:28:00;;;;;;;9.57;4.07;;;14.70;95.70;;;;;;5060006;28;20056;-55
2022/10/05 04:30:26;;;;;;;7.32;4.22;;;14.80;96.70;;;;;;5071817;28;20440;-55
2022/10/05 04:32:53;;;;;;;8.57;4.18;;;14.60;95.70;;;;;;5071404;28;20142;-54
2022/10/05 04:35:37;;;;;;;9.27;4.88;;;14.90;94.60;;;;;;5071887;28;20047;-54
2022/10/05 04:38:08;;;;;;;10.93;4.20;;;14.80;92.90;;;;;;5068901;28;20047;-57
2022/10/05 04:41:01;;;;;;;9.30;4.40;;;14.50;93.80;;;;;;5069715;28;20109;-52
2022/10/05 04:44:25;;;;;;;11.10;4.53;;;14.70;93.90;;;;;;5070579;28;20095;-55
2022/10/05 04:47:12;;;;;;;9.45;5.10;;;14.80;94.60;;;;;;5061806;28;20052;-55
2022/10/05 04:49:59;;;;;;;8.55;4.78;;;14.60;94.20;;;;;;5070192;28;20079;-55
2022/10/05 04:52:36;;;;;;;9.32;5.07;;;14.60;95.30;;;;;;5069582;28;20052;-52
2022/10/05 04:55:30;;;;;;;7.50;4.97;;;14.60;95.80;;;;;;5068316;28;20048;-56
2022/10/05 04:58:10;;;;;;;8.40;5.57;;;14.70;95.90;;;;;;5070739;28;20048;-54
2022/10/05 05:01:20;;;;;;;8.35;5.53;;;14.60;95.90;;;;;;5069248;28;20151;-52
2022/10/05 05:04:07;;;;;;;9.82;5.93;;;14.60;96.00;;;;;;5057232;28;20520;-51
2022/10/05 05:07:02;;;;;;;9.13;5.63;;;14.60;96.40;;;;;;5068698;28;21085;-53
2022/10/05 05:09:58;;;;;;;9.25;6.57;;;14.50;97.00;;;;;;5055322;28;20127;-53
2022/10/05 05:12:45;;;;;;;10.73;7.28;;;14.60;97.10;;;;;;5067842;28;20105;-48
2022/10/05 05:15:29;;;;;;;15.10;7.22;;;14.70;96.80;;;;;;5069772;28;20048;-51
2022/10/05 05:18:09;;;;;;;13.23;6.72;;;13.80;96.30;;;;;;5070229;28;20052;-50
2022/10/05 05:21:01;;;;;;;9.65;6.35;;;14.60;97.10;;;;;;5069958;28;20750;-53
2022/10/05 05:23:51;;;;;;;13.13;7.07;;;14.40;97.80;;;;;;5069094;28;20457;-53
2022/10/05 05:26:29;;;;;;;14.32;7.95;;;14.50;97.30;;;;;;5068239;28;20070;-53
2022/10/05 05:29:16;;;;;;;18.77;6.88;;;14.50;97.40;;;;;;5067338;28;20047;-54
2022/10/05 05:31:51;;;;;;;11.90;6.88;;;14.50;98.10;;;;;;5068555;28;20032;-55
2022/10/05 05:34:25;;;;;;;11.43;6.70;;;14.40;97.70;;;;;;5067938;28;20044;-52
2022/10/05 05:37:11;;;;;;;14.90;7.13;;;14.80;98.60;;;;;;5069241;28;20083;-52
2022/10/05 05:39:48;;;;;;;9.80;6.10;;;14.50;97.80;;;;;;5068799;28;20036;-53
2022/10/05 05:42:21;;;;;;;13.82;6.57;;;14.30;96.90;;;;;;5067681;28;20040;-52
2022/10/05 05:44:52;;;;;;;10.48;6.50;;;14.40;97.20;;;;;;5070015;28;20292;-54
2022/10/05 05:47:22;;;;;;;12.73;6.77;;;14.50;97.50;;;;;;5072050;28;20215;-52
2022/10/05 05:50:03;;;;;;;11.90;7.20;;;14.50;97.30;;;;;;5072686;28;20282;-54
2022/10/05 05:52:56;;;;;;;10.13;6.43;;;14.40;96.30;;;;;;5074079;28;20120;-53
2022/10/05 05:55:28;;;;;;;12.55;7.38;;;14.40;96.60;;;;;;5073474;28;20074;-54
2022/10/05 05:58:03;;;;;;;;;;;14.30;96.80;;;;;;5074248;28;20516;-55
2022/10/05 06:01:01;;;;;;;11.50;6.20;;;14.70;96.70;;;;;;5074110;28;19931;-52
2022/10/05 06:03:42;;;;;;;12.82;6.95;;;14.30;96.80;;;;;;5059232;28;20044;-54
2022/10/05 06:06:15;;;;;;;12.52;6.88;;;14.40;96.50;;;;;;5055581;28;20048;-53
2022/10/05 06:08:57;;;;;;;11.70;6.70;;;14.40;97.00;;;;;;5072451;28;20651;-52
2022/10/05 06:12:07;;;;;;;9.95;5.85;;;14.60;96.60;;;;;;5071881;28;20198;-53
2022/10/05 06:14:42;;;;;;;11.48;6.30;;;14.20;96.10;;;;;;5031253;28;20655;-52
2022/10/05 06:17:23;;;;;;;9.82;6.20;;;14.50;95.70;;;;;;5031285;28;20072;-52
2022/10/05 06:19:53;;;;;;;10.55;6.95;;;14.30;97.30;;;;;;5059365;28;20355;-53
2022/10/05 06:22:33;;;;;;;10.13;6.20;;;14.50;97.00;;;;;;5073192;28;20075;-55
2022/10/05 06:25:11;;;;;;;10.70;6.28;;;14.60;96.70;;;;;;5070129;28;20092;-52
2022/10/05 06:27:56;;;;;;;10.05;6.38;;;14.40;96.70;;;;;;5072256;28;20119;-53
2022/10/05 06:30:22;;;;;;;11.73;6.55;;;14.50;96.00;;;;;;5071068;28;20032;-52
2022/10/05 06:33:09;;;;;;;15.10;6.80;;;14.40;96.50;;;;;;5070924;28;20032;-53
2022/10/05 06:35:37;;;;;;;10.15;6.35;;;14.50;95.60;;;;;;5070789;28;20051;-54
2022/10/05 06:38:12;;;;;;;11.57;6.65;;;14.50;95.70;;;;;;5055627;28;20054;-52
2022/10/05 06:40:54;;;;;;;9.30;5.57;;;14.40;95.90;;;;;;5071885;28;20036;-52
2022/10/05 06:43:38;;;;;;;9.70;6.00;;;14.40;95.30;;;;;;5070373;28;20100;-51
2022/10/05 06:46:07;;;;;;;10.55;6.05;;;14.40;94.60;;;;;;5070595;28;20044;-54
2022/10/05 06:48:52;;;;;;;10.20;5.80;;;14.50;94.00;;;;;;5073558;28;24287;-53
2022/10/05 06:51:33;;;;;;;9.85;6.03;;;14.60;93.40;;;;;;5072413;28;20588;-52
2022/10/05 06:54:38;;;;;;;13.52;6.13;;;14.60;93.90;;;;;;5072027;28;20032;-52
2022/10/05 06:57:23;;;;;;;10.65;6.05;;;14.60;92.60;;;;;;5071801;28;20048;-52
2022/10/05 07:00:02;;;;;;;11.27;6.03;;;15.20;91.60;;;;;;5073313;28;20074;-51
2022/10/05 07:02:31;;;;;;;10.43;5.68;;;14.60;91.70;;;;;;5071263;28;20040;-51
2022/10/05 07:05:30;;;;;;;12.57;6.20;;;14.70;90.70;;;;;;5072060;28;20117;-51
2022/10/05 07:08:00;;;;;;;10.23;5.55;;;14.70;92.30;;;;;;5073546;28;20114;-50
2022/10/05 07:10:54;;;;;;;9.65;5.53;;;14.60;92.80;;;;;;5073161;28;20051;-52
2022/10/05 07:13:35;;;;;;;11.43;5.28;;;14.70;90.00;;;;;;5073472;28;20032;-53
2022/10/05 07:16:08;;;;;;;8.90;5.50;;;14.90;89.60;;;;;;5072164;28;20047;-53
2022/10/05 07:18:57;;;;;;;10.95;5.47;;;14.50;90.90;;;;;;5072860;28;20048;-52
2022/10/05 07:21:38;;;;;;;9.63;5.05;;;14.70;91.10;;;;;;5071348;28;20473;-52
2022/10/05 07:24:31;;;;;;;10.40;5.10;;;14.70;88.40;;;;;;5072176;28;20044;-54
2022/10/05 07:27:15;;;;;;;11.75;4.85;;;14.60;88.40;;;;;;5071531;28;20039;-52
2022/10/05 07:29:48;;;;;;;8.40;5.03;;;14.60;87.10;;;;;;5071228;28;20397;-54
2022/10/05 07:32:20;;;;;;;9.05;4.93;;;14.80;83.00;;;;;;5071579;28;20116;-51
2022/10/05 07:34:57;;;;;;;11.32;5.03;;;14.70;88.20;;;;;;5071505;28;20036;-54
2022/10/05 07:37:56;;;;;;;8.75;4.97;;;14.80;88.00;;;;;;5070655;28;20047;-54
2022/10/05 07:40:31;;;;;;;8.43;4.10;;;14.70;82.70;;;;;;5068560;28;20318;-52
2022/10/05 07:43:06;;;;;;;7.43;4.85;;;14.90;81.00;;;;;;5070796;28;20044;-54
2022/10/05 07:46:01;;;;;;;7.07;3.97;;;14.90;80.30;;;;;;5071578;28;20591;-52
2022/10/05 07:48:47;;;;;;;6.93;3.90;;;15.10;72.60;;;;;;5069677;28;20125;-52
2022/10/05 07:51:35;;;;;;;8.45;3.80;;;15.00;75.60;;;;;;5070199;28;20383;-50
2022/10/05 07:54:20;;;;;;;6.80;3.70;;;15.00;71.10;;;;;;5070549;28;20072;-51
2022/10/05 07:56:59;;;;;;;5.85;3.50;;;15.10;70.80;;;;;;5070862;28;20617;-52
2022/10/05 07:59:25;;;;;;;8.18;3.30;;;15.10;73.60;;;;;;5070999;28;20500;-54
2022/10/05 08:02:01;;;;;;;5.03;2.92;;;15.20;64.40;;;;;;5068883;28;20035;-53
2022/10/05 08:04:33;;;;;;;5.68;3.20;;;15.30;66.60;;;;;;5070133;28;20039;-49
2022/10/05 08:07:03;;;;;;;6.95;2.70;;;15.20;65.20;;;;;;5071283;28;20040;-54
2022/10/05 08:09:32;;;;;;;5.45;2.85;;;15.00;63.00;;;;;;5071232;28;20126;-51
2022/10/05 08:12:52;;;;;;;6.82;3.30;;;15.10;63.80;;;;;;5070171;28;21193;-53
2022/10/05 08:15:22;;;;;;;5.25;2.58;;;15.00;68.70;;;;;;5071704;28;20039;-52
2022/10/05 08:18:00;;;;;;;3.90;2.17;;;14.90;68.50;;;;;;5072325;28;20404;-53
2022/10/05 08:20:47;;;;;;;4.88;1.60;;;15.00;63.70;;;;;;5068596;28;21065;-51
2022/10/05 08:23:25;;;;;;;3.83;1.83;;;15.00;59.00;;;;;;5069247;28;20527;-53
2022/10/05 08:25:50;;;;;;;5.20;1.88;;;15.30;62.20;;;;;;5069159;28;20772;-53
2022/10/05 08:28:25;;;;;;;4.15;1.80;;;15.40;54.40;;;;;;5070493;28;20130;-53
2022/10/05 08:31:00;;;;;;;5.63;1.80;;;15.30;54.40;;;;;;5071090;28;20044;-55
2022/10/05 08:33:31;;;;;;;3.08;1.63;;;15.40;46.00;;;;;;5070532;28;20086;-52
2022/10/05 08:36:13;;;;;;;5.63;1.50;;;15.60;53.90;;;;;;5070162;28;20131;-52
2022/10/05 08:38:40;;;;;;;4.75;1.50;;;15.60;42.40;;;;;;5071017;28;20044;-52
2022/10/05 08:41:06;;;;;;;3.22;1.50;;;15.50;43.20;;;;;;5068466;28;20059;-52
2022/10/05 08:44:02;;;;;;;2.55;1.27;;;15.50;38.80;;;;;;5069072;28;20043;-53
2022/10/05 08:47:01;;;;;;;3.72;1.50;;;15.80;40.20;;;;;;5069177;28;20040;-53
2022/10/05 08:49:45;;;;;;;2.80;1.50;;;15.90;43.30;;;;;;5070394;28;21209;-52
2022/10/05 08:52:27;;;;;;;3.58;1.50;;;15.90;36.10;;;;;;5069678;28;20056;-53
2022/10/05 08:55:08;;;;;;;3.72;1.45;;;15.70;36.60;;;;;;5068876;28;20055;-50
2022/10/05 08:57:49;;;;;;;3.95;2.20;;;15.90;37.60;;;;;;5069572;28;20085;-52
2022/10/05 09:00:18;;;;;;;3.72;1.70;;;16.10;24.80;;;;;;5069083;28;20042;-53
2022/10/05 09:02:56;;;;;;;6.47;1.88;;;16.00;33.70;;;;;;5069241;28;20043;-53
2022/10/05 09:05:47;;;;;;;4.13;1.60;;;16.20;24.50;;;;;;5069654;28;20073;-51
2022/10/05 09:08:34;;;;;;;3.37;1.80;;;16.20;15.90;;;;;;5069842;28;20048;-51
2022/10/05 09:11:31;;;;;;;3.08;1.70;;;16.20;27.70;;;;;;5067814;28;20293;-53
2022/10/05 09:14:22;;;;;;;2.90;1.60;;;16.40;23.40;;;;;;5066437;28;20047;-51
2022/10/05 09:17:07;;;;;;;4.13;2.30;;;16.30;6.60;;;;;;5068214;28;20494;-54
2022/10/05 09:19:51;;;;;;;4.70;2.20;;;16.60;16.20;;;;;;5070995;28;20363;-52
2022/10/05 09:22:46;;;;;;;9.20;2.47;;;16.70;12.70;;;;;;5070768;28;20040;-51
2022/10/05 09:25:22;;;;;;;6.32;2.50;;;16.60;9.90;;;;;;5054939;28;20052;-54
2022/10/05 09:27:57;;;;;;;6.03;2.90;;;16.70;13.90;;;;;;5075256;28;20044;-53
2022/10/05 09:30:45;;;;;;;5.60;2.40;;;16.60;19.50;;;;;;5075816;28;20622;-52
2022/10/05 09:33:26;;;;;;;5.90;2.65;;;16.50;2.60;;;;;;5074592;28;20412;-52
2022/10/05 09:36:19;;;;;;;8.10;2.67;;;16.50;18.00;;;;;;5074192;28;20036;-54
2022/10/05 09:39:21;;;;;;;6.05;3.00;;;16.70;9.20;;;;;;5072125;28;20040;-54
2022/10/05 09:42:01;;;;;;;8.13;3.22;;;16.60;10.90;;;;;;5073582;28;20040;-52
2022/10/05 09:45:18;;;;;;;5.43;2.70;;;17.50;11.20;;;;;;5071526;28;20527;-53
2022/10/05 09:47:58;;;;;;;6.63;3.00;;;16.70;19.70;;;;;;5040764;28;20562;-54
2022/10/05 09:51:07;;;;;;;5.90;3.25;;;16.70;18.60;;;;;;5073649;28;20407;-52
2022/10/05 09:54:22;;;;;;;7.78;2.60;;;16.70;1.00;;;;;;5071724;28;20059;-54
2022/10/05 09:57:14;;;;;;;11.27;2.72;;;16.60;4.00;;;;;;4991852;28;20050;-54
2022/10/05 09:59:54;;;;;;;5.72;2.63;;;16.70;9.90;;;;;;4990491;28;20092;-51
2022/10/05 10:02:39;;;;;;;5.00;2.35;;;16.70;11.90;;;;;;5051245;28;20043;-53
2022/10/05 10:05:24;;;;;;;5.18;2.60;;;16.70;13.30;;;;;;5072019;28;20093;-52
2022/10/05 10:07:59;;;;;;;6.05;3.05;;;17.90;4.70;;;;;;5072683;28;20541;-50
2022/10/05 10:10:55;;;;;;;6.63;2.90;;;16.60;3.00;;;;;;5072293;28;20101;-51
2022/10/05 10:13:42;;;;;;;9.48;2.50;;;16.70;5.60;;;;;;5071454;28;20176;-53
2022/10/05 10:16:15;;;;;;;8.30;2.58;;;16.20;6.80;;;;;;5071743;28;20157;-51
2022/10/05 10:19:11;;;;;;;5.22;2.60;;;16.60;5.80;;;;;;5073398;28;20493;-52
2022/10/05 10:21:38;;;;;;;8.63;2.40;;;16.50;15.80;;;;;;5073105;28;20658;-53
2022/10/05 10:24:09;;;;;;;5.25;2.33;;;16.50;15.10;;;;;;5072133;28;20055;-52
2022/10/05 10:27:09;;;;;;;4.28;2.30;;;16.50;7.30;;;;;;5072564;28;20040;-52
2022/10/05 10:29:44;;;;;;;7.45;2.65;;;16.40;5.20;;;;;;5071928;28;20040;-53
2022/10/05 10:32:45;;;;;;;8.57;2.50;;;16.30;15.90;;;;;;5072899;28;20039;-50
2022/10/05 10:35:19;;;;;;;5.35;2.55;;;16.30;13.30;;;;;;5071362;28;20094;-54
2022/10/05 10:38:13;;;;;;;5.82;3.00;;;16.20;23.40;;;;;;5071071;28;20036;-52
2022/10/05 10:41:06;;;;;;;7.97;2.95;;;16.10;23.60;;;;;;5071421;28;20465;-52
2022/10/05 10:44:13;;;;;;;5.43;2.70;;;16.10;24.10;;;;;;5071509;28;20062;-50
2022/10/05 10:47:23;;;;;;;5.20;2.88;;;15.90;23.90;;;;;;5057845;28;20075;-47
2022/10/05 10:50:04;;;;;;;7.60;3.17;;;16.10;30.40;;;;;;5072135;28;20047;-48
2022/10/05 10:52:56;;;;;;;6.93;2.85;;;15.70;32.80;;;;;;5073288;28;20044;-51
2022/10/05 10:55:52;;;;;;;4.90;2.90;;;15.80;33.50;;;;;;5072165;28;20044;-53
2022/10/05 10:58:33;;;;;;;5.20;2.78;;;16.00;33.40;;;;;;5017381;28;20144;-48
2022/10/05 11:01:08;;;;;;;6.30;2.70;;;16.10;30.00;;;;;;5071215;28;20134;-54
2022/10/05 11:03:52;;;;;;;7.45;2.75;;;15.80;35.00;;;;;;5070299;28;20048;-49
2022/10/05 11:06:44;;;;;;;6.10;2.67;;;15.80;37.70;;;;;;5071695;28;20052;-51
2022/10/05 11:09:26;;;;;;;7.32;3.25;;;15.80;41.00;;;;;;5041039;28;20063;-50
2022/10/05 11:12:05;;;;;;;7.68;2.78;;;16.00;35.80;;;;;;5070911;28;20624;-53
2022/10/05 11:14:52;;;;;;;6.88;3.13;;;16.00;39.50;;;;;;5070552;28;20940;-47
2022/10/05 11:17:42;;;;;;;6.22;2.70;;;16.00;29.50;;;;;;5071379;28;21163;-50
2022/10/05 11:20:38;;;;;;;4.25;2.80;;;16.00;34.60;;;;;;5071629;28;20694;-50
2022/10/05 11:23:32;;;;;;;6.95;2.88;;;15.80;36.40;;;;;;5071520;28;20044;-50
2022/10/05 11:26:22;;;;;;;4.90;3.15;;;15.70;40.40;;;;;;5070428;28;20093;-51
2022/10/05 11:28:50;;;;;;;5.95;2.90;;;15.90;39.60;;;;;;5069337;28;20047;-49
2022/10/05 11:31:35;;;;;;;8.57;3.55;;;15.90;45.60;;;;;;5069793;28;20122;-53
2022/10/05 11:34:25;;;;;;;5.40;3.05;;;15.70;39.90;;;;;;5070478;28;20047;-51
2022/10/05 11:37:21;;;;;;;7.78;2.85;;;15.90;36.80;;;;;;5069006;28;20070;-48
2022/10/05 11:39:59;;;;;;;7.18;3.08;;;15.90;38.90;;;;;;5068476;28;20055;-52
2022/10/05 11:42:33;;;;;;;6.20;2.92;;;15.90;32.30;;;;;;5070264;28;20141;-52
2022/10/05 11:45:05;;;;;;;5.85;2.60;;;15.80;40.40;;;;;;5069541;28;20694;-52
2022/10/05 11:47:39;;;;;;;;;;;15.80;39.40;;;;;;5070348;28;20047;-54
2022/10/05 11:50:26;;;;;;;6.95;3.00;;;15.80;37.70;;;;;;5072383;28;20435;-47
2022/10/05 11:53:06;;;;;;;7.22;2.67;;;15.90;46.10;;;;;;5069980;28;20350;-53
2022/10/05 11:56:03;;;;;;;5.43;2.60;;;15.90;45.30;;;;;;5070615;28;20641;-53
2022/10/05 11:58:53;;;;;;;6.80;2.58;;;15.80;49.80;;;;;;5042388;28;21115;-54
2022/10/05 12:01:33;;;;;;;4.97;2.60;;;15.90;45.40;;;;;;5070882;28;20437;-51
2022/10/05 12:04:21;;;;;;;4.70;2.53;;;16.90;36.30;;;;;;5070043;28;20054;-50
2022/10/05 12:06:49;;;;;;;7.03;2.55;;;15.90;36.80;;;;;;5069971;28;20032;-50
2022/10/05 12:12:44;;;;;;;4.07;2.00;;;16.00;23.10;;;;;;5071042;28;20056;-47
2022/10/05 12:15:35;;;;;;;4.32;2.20;;;16.80;27.70;;;;;;5071124;28;20047;-46
2022/10/05 12:18:12;;;;;;;4.22;2.10;;;16.00;9.10;;;;;;5070514;28;20048;-54
2022/10/05 12:21:10;;;;;;;6.32;1.88;;;15.90;17.00;;;;;;5071345;28;20036;-49
2022/10/05 12:23:56;;;;;;;5.22;1.90;;;16.20;9.40;;;;;;5070857;28;20036;-48
2022/10/05 12:26:36;;;;;;;3.35;1.80;;;15.90;6.90;;;;;;5068198;28;20092;-51
2022/10/05 12:29:24;;;;;;;4.93;1.95;;;16.10;1.00;;;;;;5069215;28;20659;-51
2022/10/05 12:32:02;;;;;;;3.65;1.98;;;16.10;1.00;;;;;;5071328;28;20036;-53
2022/10/05 12:34:33;;;;;;;7.78;2.35;;;16.10;1.00;;;;;;5067787;28;20032;-49
2022/10/05 12:37:39;;;;;;;4.18;1.95;;;16.00;3.30;;;;;;5068104;28;20188;-50
2022/10/05 12:40:33;;;;;;;3.22;1.80;;;18.00;1.00;;;;;;5069534;28;20066;-48
2022/10/05 12:43:24;;;;;;;5.57;2.30;;;16.00;2.40;;;;;;5069483;28;20570;-50
2022/10/05 12:46:02;;;;;;;5.63;2.10;;;16.00;1.50;;;;;;5069057;28;20497;-51
2022/10/05 12:48:37;;;;;;;7.78;2.28;;;16.20;11.50;;;;;;5069764;28;20040;-51
2022/10/05 12:51:26;;;;;;;6.60;2.13;;;16.20;8.10;;;;;;5069580;28;20036;-48
2022/10/05 12:54:16;;;;;;;6.82;2.42;;;15.90;8.10;;;;;;5070056;28;20040;-47
2022/10/05 12:56:50;;;;;;;7.22;2.38;;;18.30;1.00;;;;;;5068658;28;20595;-49
2022/10/05 12:59:40;;;;;;;8.35;2.35;;;15.90;6.00;;;;;;5068204;28;20055;-60
2022/10/05 13:02:41;;;;;;;5.25;2.65;;;16.00;7.10;;;;;;5069924;28;20454;-60
2022/10/05 13:05:09;;;;;;;5.00;2.15;;;16.40;2.40;;;;;;5070934;28;20048;-60
2022/10/05 13:07:38;;;;;;;6.15;2.10;;;15.90;15.00;;;;;;5068375;28;20043;-60
2022/10/05 13:10:19;;;;;;;5.65;2.30;;;16.10;6.30;;;;;;5069360;28;20527;-61
2022/10/05 13:12:59;;;;;;;7.10;2.33;;;16.10;10.40;;;;;;5071505;28;20132;-61
2022/10/05 13:15:35;;;;;;;7.18;2.53;;;16.30;10.70;;;;;;5068157;28;20051;-60
2022/10/05 13:18:20;;;;;;;8.60;2.70;;;16.40;12.30;;;;;;5069512;28;20083;-60
2022/10/05 13:20:51;;;;;;;6.03;3.33;;;16.20;6.90;;;;;;5069895;28;20037;-60
2022/10/05 13:23:39;;;;;;;7.38;2.70;;;16.00;4.20;;;;;;5068502;28;20043;-61
2022/10/05 13:26:15;;;;;;;6.40;2.83;;;16.20;11.90;;;;;;5067135;28;20079;-60
2022/10/05 13:28:43;;;;;;;7.00;2.70;;;16.10;13.60;;;;;;5069003;28;20051;-60
2022/10/05 13:31:48;;;;;;;6.05;2.65;;;16.20;1.00;;;;;;5069317;28;20075;-60
2022/10/05 13:34:14;;;;;;;7.05;2.83;;;16.20;9.00;;;;;;5051327;28;20055;-61
2022/10/05 13:36:46;;;;;;;5.55;2.92;;;16.40;10.60;;;;;;5069094;28;20036;-59
2022/10/05 13:39:27;;;;;;;5.65;2.60;;;16.30;1.00;;;;;;5068227;28;20044;-61
2022/10/05 13:42:14;;;;;;;5.75;2.78;;;16.30;4.80;;;;;;5067186;28;20075;-59
2022/10/05 13:44:40;;;;;;;6.70;3.72;;;16.40;1.80;;;;;;5068162;28;20071;-60
2022/10/05 13:47:16;;;;;;;7.75;3.17;;;16.60;8.70;;;;;;5067501;28;20143;-60
2022/10/05 13:50:07;;;;;;;5.70;3.13;;;16.60;1.60;;;;;;5068290;28;20547;-59
2022/10/05 13:53:00;;;;;;;6.05;3.22;;;16.60;1.00;;;;;;5067140;28;20124;-60
2022/10/05 13:55:34;;;;;;;9.68;3.70;;;16.60;10.90;;;;;;5066954;28;20591;-59
2022/10/05 13:58:33;;;;;;;5.53;2.95;;;16.60;7.90;;;;;;5069592;28;20492;-59
2022/10/05 14:01:06;;;;;;;6.70;2.80;;;16.80;1.00;;;;;;5068390;28;20040;-59
2022/10/05 14:03:35;;;;;;;6.38;2.90;;;16.70;6.50;;;;;;5067756;28;20040;-59
2022/10/05 14:06:12;;;;;;;10.63;2.72;;;17.00;8.10;;;;;;5069039;28;20040;-60